Time;durP1;ratioP1;P1;durP2;ratioP2;P2;SDS_P1;SDS_P2;PMS_P1;PMS_P2;Temp;Humidity;BMP_temperature;BMP_pressure;BME280_temperature;BME280_humidity;BME280_pressure;Samples;Min_cycle;Max_cycle;Signal;HPM_P1;HPM_P2
2023/04/28 00:00:27;;;;;;;435.50;113.07;;;;;;;;;;5026212;28;20021;-55
2023/04/28 00:02:52;;;;;;;425.95;115.95;;;;;;;;;;5026236;28;20021;-53
2023/04/28 00:05:18;;;;;;;425.45;113.85;;;;;;;;;;5026056;28;20044;-52
2023/04/28 00:07:43;;;;;;;418.15;108.85;;;;;;;;;;5026319;28;20025;-53
2023/04/28 00:10:09;;;;;;;423.88;112.75;;;;;;;;;;5026109;28;20040;-56
2023/04/28 00:12:34;;;;;;;421.02;111.63;;;;;;;;;;5026011;28;20037;-52
2023/04/28 00:14:59;;;;;;;419.05;110.43;;;;;;;;;;5025959;28;20043;-53
2023/04/28 00:17:25;;;;;;;432.20;116.80;;;;;;;;;;5024574;28;20017;-54
2023/04/28 00:19:50;;;;;;;435.45;113.70;;;;;;;;;;5025853;28;20052;-51
2023/04/28 00:22:15;;;;;;;413.58;112.35;;;;;;;;;;5025802;28;20018;-53
2023/04/28 00:24:40;;;;;;;424.55;113.47;;;;;;;;;;5026024;28;20025;-52
2023/04/28 00:27:06;;;;;;;423.92;114.07;;;;;;;;;;5025256;28;20021;-54
2023/04/28 00:29:31;;;;;;;417.83;111.43;;;;;;;;;;5025825;28;20087;-54
2023/04/28 00:31:56;;;;;;;431.70;113.90;;;;;;;;;;5025449;28;20114;-52
2023/04/28 00:34:22;;;;;;;430.50;113.82;;;;;;;;;;5025885;28;20461;-56
2023/04/28 00:36:47;;;;;;;428.25;113.07;;;;;;;;;;5025040;28;20701;-52
2023/04/28 00:39:13;;;;;;;416.27;108.80;;;;;;;;;;5022933;28;20513;-55
2023/04/28 00:41:38;;;;;;;417.13;112.40;;;;;;;;;;5025444;28;20391;-53
2023/04/28 00:44:04;;;;;;;409.70;108.78;;;;;;;;;;5025436;28;20064;-54
2023/04/28 00:46:31;;;;;;;406.95;106.78;;;;;;;;;;5025136;28;20018;-53
2023/04/28 00:48:56;;;;;;;418.63;109.65;;;;;;;;;;5025797;28;20013;-55
2023/04/28 00:51:22;;;;;;;421.77;111.90;;;;;;;;;;5025422;28;20531;-56
2023/04/28 00:53:47;;;;;;;430.10;110.40;;;;;;;;;;5024799;28;20028;-54
2023/04/28 00:56:12;;;;;;;425.90;111.55;;;;;;;;;;5025417;28;20022;-53
2023/04/28 00:58:38;;;;;;;436.98;111.13;;;;;;;;;;5025029;28;20017;-51
2023/04/28 01:01:04;;;;;;;418.48;109.03;;;;;;;;;;5025079;28;20061;-53
2023/04/28 01:03:29;;;;;;;428.65;112.22;;;;;;;;;;5025181;28;20025;-53
2023/04/28 01:05:55;;;;;;;420.08;108.30;;;;;;;;;;5024673;28;20025;-55
2023/04/28 01:08:23;;;;;;;420.48;110.50;;;;;;;;;;5024782;28;20071;-53
2023/04/28 01:10:48;;;;;;;420.70;107.30;;;;;;;;;;5024990;28;20571;-56
2023/04/28 01:13:13;;;;;;;421.23;108.90;;;;;;;;;;5024787;28;20030;-52
2023/04/28 01:15:39;;;;;;;433.25;111.90;;;;;;;;;;5024953;28;20100;-55
2023/04/28 01:18:04;;;;;;;417.77;108.43;;;;;;;;;;5024428;28;20387;-54
2023/04/28 01:20:30;;;;;;;428.52;112.30;;;;;;;;;;5024858;28;20021;-52
2023/04/28 01:22:55;;;;;;;423.65;111.95;;;;;;;;;;5024503;28;20116;-56
2023/04/28 01:25:20;;;;;;;415.30;108.43;;;;;;;;;;5022148;28;20029;-51
2023/04/28 01:27:46;;;;;;;426.02;113.35;;;;;;;;;;5024455;28;20108;-55
2023/04/28 01:30:11;;;;;;;414.30;110.32;;;;;;;;;;5024226;28;20025;-54
2023/04/28 01:32:36;;;;;;;408.02;106.75;;;;;;;;;;5024604;28;20021;-56
2023/04/28 01:35:02;;;;;;;422.40;110.97;;;;;;;;;;5024283;28;20025;-54
2023/04/28 01:37:27;;;;;;;423.50;110.28;;;;;;;;;;5023885;28;20030;-54
2023/04/28 01:39:52;;;;;;;413.50;108.32;;;;;;;;;;5024137;28;20551;-50
2023/04/28 01:42:18;;;;;;;436.95;112.95;;;;;;;;;;5024674;28;20070;-52
2023/04/28 01:44:43;;;;;;;426.85;108.82;;;;;;;;;;5024323;28;20032;-55
2023/04/28 01:47:08;;;;;;;439.27;112.95;;;;;;;;;;5024092;28;20421;-56
2023/04/28 01:49:33;;;;;;;434.38;111.07;;;;;;;;;;5024333;28;20378;-55
2023/04/28 01:51:59;;;;;;;435.30;109.28;;;;;;;;;;5024110;28;20079;-54
2023/04/28 01:54:24;;;;;;;419.48;105.07;;;;;;;;;;5024355;28;20032;-55
2023/04/28 01:56:50;;;;;;;439.15;108.53;;;;;;;;;;5021892;28;20030;-56
2023/04/28 01:59:15;;;;;;;438.08;111.85;;;;;;;;;;5022972;28;20028;-52
2023/04/28 02:01:40;;;;;;;427.83;107.70;;;;;;;;;;5023833;28;20377;-55
2023/04/28 02:04:05;;;;;;;429.13;109.68;;;;;;;;;;5024158;28;20026;-55
2023/04/28 02:06:31;;;;;;;425.10;108.20;;;;;;;;;;5024617;28;20493;-52
2023/04/28 02:08:56;;;;;;;432.90;104.28;;;;;;;;;;5024286;28;20026;-52
2023/04/28 02:11:22;;;;;;;429.02;108.07;;;;;;;;;;5023945;28;20029;-54
2023/04/28 02:13:47;;;;;;;427.15;109.30;;;;;;;;;;5023902;28;20057;-50
2023/04/28 02:16:12;;;;;;;422.73;106.35;;;;;;;;;;5024166;28;20091;-51
2023/04/28 02:18:37;;;;;;;430.27;109.03;;;;;;;;;;5024110;28;20029;-57
2023/04/28 02:21:10;;;;;;;425.98;105.85;;;;;;;;;;5023851;28;20037;-55
2023/04/28 02:23:35;;;;;;;435.98;111.07;;;;;;;;;;5024137;28;20018;-55
2023/04/28 02:26:02;;;;;;;433.00;110.43;;;;;;;;;;5024114;28;20040;-50
2023/04/28 02:28:28;;;;;;;426.90;108.45;;;;;;;;;;5023894;28;20481;-52
2023/04/28 02:31:02;;;;;;;435.55;110.05;;;;;;;;;;5024059;28;20032;-55
2023/04/28 02:33:27;;;;;;;426.95;108.53;;;;;;;;;;5023605;28;20052;-56
2023/04/28 02:35:59;;;;;;;420.85;108.25;;;;;;;;;;5023652;28;20053;-56
2023/04/28 02:38:25;;;;;;;434.02;109.72;;;;;;;;;;5023621;28;20033;-52
2023/04/28 02:41:00;;;;;;;435.88;109.05;;;;;;;;;;5023851;28;20029;-54
2023/04/28 02:43:26;;;;;;;430.30;108.88;;;;;;;;;;5023722;28;20022;-52
2023/04/28 02:45:52;;;;;;;430.15;108.85;;;;;;;;;;5023933;28;20563;-56
2023/04/28 02:48:17;;;;;;;427.20;105.65;;;;;;;;;;5024254;28;20017;-54
2023/04/28 02:50:42;;;;;;;416.17;105.40;;;;;;;;;;5026664;28;20091;-52
2023/04/28 02:53:08;;;;;;;430.15;108.90;;;;;;;;;;5027726;28;20040;-55
2023/04/28 02:55:33;;;;;;;424.85;108.35;;;;;;;;;;5028041;28;20024;-53
2023/04/28 02:57:58;;;;;;;415.52;106.97;;;;;;;;;;5041887;28;20170;-53
2023/04/28 03:00:23;;;;;;;406.27;102.50;;;;;;;;;;5027791;28;20029;-54
2023/04/28 03:02:49;;;;;;;405.13;104.15;;;;;;;;;;5028058;28;20035;-54
2023/04/28 03:05:14;;;;;;;408.05;102.72;;;;;;;;;;5027850;28;20061;-54
2023/04/28 03:07:40;;;;;;;37.47;22.63;;;;;;;;;;5027558;28;20541;-53
2023/04/28 03:10:06;;;;;;;26.35;16.52;;;;;;;;;;5027406;28;20032;-52
2023/04/28 03:12:31;;;;;;;52.72;31.40;;;;;;;;;;5027123;28;20029;-55
2023/04/28 03:14:56;;;;;;;35.20;29.40;;;;;;;;;;5027599;28;20010;-55
2023/04/28 03:17:22;;;;;;;44.75;34.40;;;;;;;;;;5024928;28;20043;-55
2023/04/28 03:19:47;;;;;;;44.88;36.22;;;;;;;;;;5026957;28;20025;-56
2023/04/28 03:22:12;;;;;;;38.63;28.73;;;;;;;;;;5027117;28;20148;-57
2023/04/28 03:24:37;;;;;;;25.60;16.10;;;;;;;;;;5024715;28;20330;-53
2023/04/28 03:27:03;;;;;;;36.08;22.70;;;;;;;;;;5027112;28;20417;-57
2023/04/28 03:29:28;;;;;;;39.70;27.80;;;;;;;;;;5027085;28;20113;-57
2023/04/28 03:31:53;;;;;;;24.50;13.98;;;;;;;;;;5026846;28;20029;-54
2023/04/28 03:34:19;;;;;;;30.58;15.00;;;;;;;;;;5026658;28;20052;-55
2023/04/28 03:36:44;;;;;;;31.80;13.30;;;;;;;;;;5026765;28;20021;-57
2023/04/28 03:39:09;;;;;;;23.25;12.27;;;;;;;;;;5026900;28;20049;-57
2023/04/28 03:41:35;;;;;;;29.95;13.70;;;;;;;;;;5025536;28;20022;-55
2023/04/28 03:44:00;;;;;;;26.17;12.95;;;;;;;;;;5026857;28;20025;-55
2023/04/28 03:46:25;;;;;;;31.17;12.68;;;;;;;;;;5026650;28;20281;-53
2023/04/28 03:48:52;;;;;;;29.50;12.88;;;;;;;;;;5026930;28;20017;-54
2023/04/28 03:51:17;;;;;;;22.13;12.60;;;;;;;;;;5026623;28;20060;-56
2023/04/28 03:53:42;;;;;;;25.27;12.82;;;;;;;;;;5026415;28;20325;-56
2023/04/28 03:56:08;;;;;;;25.77;12.25;;;;;;;;;;5026302;28;20060;-56
2023/04/28 03:58:34;;;;;;;18.42;10.52;;;;;;;;;;5026698;28;20022;-53
2023/04/28 04:00:59;;;;;;;23.23;12.93;;;;;;;;;;5025490;28;20022;-56
2023/04/28 04:03:25;;;;;;;27.92;12.45;;;;;;;;;;5026569;28;20106;-55
2023/04/28 04:05:51;;;;;;;28.85;14.23;;;;;;;;;;5026175;28;20103;-57
2023/04/28 04:08:16;;;;;;;21.17;14.88;;;;;;;;;;5026487;28;20088;-54
2023/04/28 04:10:41;;;;;;;23.50;14.75;;;;;;;;;;5026117;28;20111;-52
2023/04/28 04:13:07;;;;;;;22.90;11.88;;;;;;;;;;5026392;28;20037;-54
2023/04/28 04:15:32;;;;;;;25.48;11.75;;;;;;;;;;5026060;28;20159;-55
2023/04/28 04:17:57;;;;;;;22.27;11.23;;;;;;;;;;5026046;28;20052;-56
2023/04/28 04:20:23;;;;;;;19.73;10.30;;;;;;;;;;5025912;28;20079;-54
2023/04/28 04:22:48;;;;;;;19.88;10.18;;;;;;;;;;5024792;28;20021;-55
2023/04/28 04:25:13;;;;;;;16.92;9.23;;;;;;;;;;5026416;28;20492;-56
2023/04/28 04:27:38;;;;;;;19.92;9.50;;;;;;;;;;5025859;28;20025;-55
2023/04/28 04:30:04;;;;;;;16.15;9.00;;;;;;;;;;5025602;28;20469;-50
2023/04/28 04:32:29;;;;;;;18.35;8.95;;;;;;;;;;5023584;28;20131;-53
2023/04/28 04:34:56;;;;;;;22.42;9.07;;;;;;;;;;5025726;28;20025;-55
2023/04/28 04:37:21;;;;;;;16.83;8.68;;;;;;;;;;5025364;28;20033;-53
2023/04/28 04:39:47;;;;;;;21.80;8.77;;;;;;;;;;5025250;28;20045;-55
2023/04/28 04:42:12;;;;;;;16.95;8.75;;;;;;;;;;5025162;28;20133;-51
2023/04/28 04:44:37;;;;;;;15.45;8.27;;;;;;;;;;5025467;28;20041;-56
2023/04/28 04:47:02;;;;;;;17.33;8.65;;;;;;;;;;5025386;28;20405;-57
2023/04/28 04:49:28;;;;;;;19.10;9.63;;;;;;;;;;5025357;28;20032;-56
2023/04/28 04:51:53;;;;;;;16.42;8.32;;;;;;;;;;5025487;28;20476;-55
2023/04/28 04:54:18;;;;;;;20.65;9.27;;;;;;;;;;5024984;28;20029;-56
2023/04/28 04:56:44;;;;;;;23.90;8.95;;;;;;;;;;5025326;28;20473;-57
2023/04/28 04:59:09;;;;;;;23.55;8.48;;;;;;;;;;5025269;28;20029;-53
2023/04/28 05:01:34;;;;;;;15.88;8.07;;;;;;;;;;5025065;28;20056;-53
2023/04/28 05:04:00;;;;;;;16.65;8.02;;;;;;;;;;5039212;28;20390;-56
2023/04/28 05:06:25;;;;;;;13.38;7.38;;;;;;;;;;5025062;28;20430;-57
2023/04/28 05:08:50;;;;;;;19.48;6.88;;;;;;;;;;5039285;28;20045;-56
2023/04/28 05:11:16;;;;;;;15.52;6.95;;;;;;;;;;5023591;28;20037;-57
2023/04/28 05:13:41;;;;;;;11.93;6.57;;;;;;;;;;5025242;28;20527;-55
2023/04/28 05:16:06;;;;;;;15.70;5.50;;;;;;;;;;5024745;28;20553;-54
2023/04/28 05:18:32;;;;;;;21.90;6.15;;;;;;;;;;5024741;28;20025;-53
2023/04/28 05:20:57;;;;;;;11.98;5.38;;;;;;;;;;5025042;28;20112;-56
2023/04/28 05:23:23;;;;;;;13.02;5.38;;;;;;;;;;5022657;28;20033;-54
2023/04/28 05:25:48;;;;;;;13.35;5.82;;;;;;;;;;5024940;28;20104;-56
2023/04/28 05:28:14;;;;;;;20.00;6.18;;;;;;;;;;5024559;28;20557;-56
2023/04/28 05:30:40;;;;;;;15.73;5.45;;;;;;;;;;5024502;28;20022;-53
2023/04/28 05:33:05;;;;;;;20.10;5.90;;;;;;;;;;5025025;28;20021;-55
2023/04/28 05:35:30;;;;;;;14.82;5.40;;;;;;;;;;5022337;28;20445;-57
2023/04/28 05:37:56;;;;;;;15.20;6.13;;;;;;;;;;5024520;28;20021;-56
2023/04/28 05:40:21;;;;;;;21.85;6.20;;;;;;;;;;5024133;28;20420;-57
2023/04/28 05:42:48;;;;;;;14.88;5.55;;;;;;;;;;5023702;28;20056;-58
2023/04/28 05:45:14;;;;;;;16.55;6.45;;;;;;;;;;5055453;28;20029;-57
2023/04/28 05:47:39;;;;;;;86.90;8.45;;;;;;;;;;5025089;28;20014;-55
2023/04/28 05:50:05;;;;;;;13.52;5.00;;;;;;;;;;5048442;28;20036;-55
2023/04/28 05:52:30;;;;;;;15.88;4.88;;;;;;;;;;5044561;28;20464;-55
2023/04/28 05:54:55;;;;;;;17.42;5.20;;;;;;;;;;5031616;28;20321;-55
2023/04/28 05:57:21;;;;;;;17.83;5.40;;;;;;;;;;5027861;28;20452;-56
2023/04/28 05:59:46;;;;;;;22.50;5.43;;;;;;;;;;5031756;28;20021;-57
2023/04/28 06:02:11;;;;;;;10.52;4.53;;;;;;;;;;5028353;28;20029;-53
2023/04/28 06:04:37;;;;;;;11.32;4.95;;;;;;;;;;5025783;28;20467;-55
2023/04/28 06:07:02;;;;;;;15.50;5.45;;;;;;;;;;5016519;28;20022;-57
2023/04/28 06:09:28;;;;;;;12.98;4.80;;;;;;;;;;5006796;28;20034;-54
2023/04/28 06:11:54;;;;;;;17.67;5.22;;;;;;;;;;5008792;28;20099;-53
2023/04/28 06:14:19;;;;;;;15.32;5.38;;;;;;;;;;5020338;28;20052;-59
2023/04/28 06:16:45;;;;;;;21.92;6.13;;;;;;;;;;5013898;28;20064;-56
2023/04/28 06:19:10;;;;;;;21.38;6.00;;;;;;;;;;5007315;28;20053;-56
2023/04/28 06:21:35;;;;;;;10.13;5.25;;;;;;;;;;5018003;28;20301;-56
2023/04/28 06:24:01;;;;;;;13.27;4.55;;;;;;;;;;5013948;28;20029;-59
2023/04/28 06:26:26;;;;;;;15.07;4.45;;;;;;;;;;5022788;28;20077;-54
2023/04/28 06:28:51;;;;;;;18.48;4.47;;;;;;;;;;5019207;28;20496;-57
2023/04/28 06:31:17;;;;;;;16.92;5.60;;;;;;;;;;5022209;28;20065;-59
2023/04/28 06:33:42;;;;;;;22.23;5.05;;;;;;;;;;5013453;28;20052;-59
2023/04/28 06:36:07;;;;;;;13.60;4.32;;;;;;;;;;5009615;28;20309;-57
2023/04/28 06:38:33;;;;;;;19.08;6.80;;;;;;;;;;5011761;28;20454;-55
2023/04/28 06:40:58;;;;;;;36.00;28.35;;;;;;;;;;5012340;28;20028;-56
2023/04/28 06:43:23;;;;;;;69.82;64.65;;;;;;;;;;5020064;28;20017;-52
2023/04/28 06:45:49;;;;;;;74.00;68.55;;;;;;;;;;5017763;28;20530;-58
2023/04/28 06:48:14;;;;;;;38.65;34.45;;;;;;;;;;5012140;28;20029;-57
2023/04/28 06:50:39;;;;;;;99.93;93.15;;;;;;;;;;5045104;28;20048;-53
2023/04/28 06:53:06;;;;;;;107.45;100.15;;;;;;;;;;5017573;28;20021;-58
2023/04/28 06:55:32;;;;;;;95.53;89.15;;;;;;;;;;5014841;28;20100;-56
2023/04/28 06:57:58;;;;;;;96.65;89.97;;;;;;;;;;5021052;28;20476;-56
2023/04/28 07:00:23;;;;;;;99.45;91.90;;;;;;;;;;5012069;28;20116;-49
2023/04/28 07:02:48;;;;;;;88.45;82.32;;;;;;;;;;5019905;28;20021;-50
2023/04/28 07:05:14;;;;;;;75.40;68.97;;;;;;;;;;5020878;28;20090;-54
2023/04/28 07:07:39;;;;;;;71.32;66.38;;;;;;;;;;5015177;28;20014;-56
2023/04/28 07:10:05;;;;;;;61.17;56.42;;;;;;;;;;5024367;28;20329;-56
2023/04/28 07:12:30;;;;;;;53.22;49.42;;;;;;;;;;5027156;28;20017;-57
2023/04/28 07:14:55;;;;;;;48.08;44.83;;;;;;;;;;5015251;28;20540;-53
2023/04/28 07:17:21;;;;;;;44.67;41.13;;;;;;;;;;5027062;28;20029;-55
2023/04/28 07:19:48;;;;;;;35.30;32.78;;;;;;;;;;5023028;28;20079;-61
2023/04/28 07:22:14;;;;;;;64.55;58.50;;;;;;;;;;5020600;28;20033;-61
2023/04/28 07:24:39;;;;;;;72.72;67.93;;;;;;;;;;5017945;28;20021;-61
2023/04/28 07:27:04;;;;;;;76.63;71.13;;;;;;;;;;5021881;28;20121;-61
2023/04/28 07:29:32;;;;;;;62.03;57.47;;;;;;;;;;5025893;28;20160;-61
2023/04/28 07:31:58;;;;;;;53.13;49.43;;;;;;;;;;5018793;28;20028;-62
2023/04/28 07:34:24;;;;;;;56.00;51.92;;;;;;;;;;5024692;28;20021;-63
2023/04/28 07:36:49;;;;;;;63.45;58.42;;;;;;;;;;5021659;28;20436;-61
2023/04/28 07:39:14;;;;;;;63.67;58.80;;;;;;;;;;5024282;28;20054;-62
2023/04/28 07:41:40;;;;;;;63.47;57.92;;;;;;;;;;5023135;28;20696;-64
2023/04/28 07:44:07;;;;;;;48.28;44.05;;;;;;;;;;5024078;28;20092;-63
2023/04/28 07:46:32;;;;;;;53.25;48.72;;;;;;;;;;5016455;28;20021;-61
2023/04/28 07:48:57;;;;;;;34.05;31.20;;;;;;;;;;5014256;28;20025;-61
2023/04/28 07:51:23;;;;;;;50.88;46.33;;;;;;;;;;5016441;28;20133;-60
2023/04/28 07:53:48;;;;;;;63.97;58.15;;;;;;;;;;5013077;28;20045;-62
2023/04/28 07:56:13;;;;;;;70.80;64.88;;;;;;;;;;5021330;28;20025;-61
2023/04/28 07:58:38;;;;;;;63.03;58.15;;;;;;;;;;5017487;28;20096;-62
2023/04/28 08:01:04;;;;;;;60.50;55.38;;;;;;;;;;5024310;28;20030;-61
2023/04/28 08:03:29;;;;;;;43.05;39.47;;;;;;;;;;5018919;28;20033;-61
2023/04/28 08:05:54;;;;;;;51.40;47.10;;;;;;;;;;5015942;28;20468;-61
2023/04/28 08:08:20;;;;;;;36.35;32.85;;;;;;;;;;5017338;28;20042;-60
2023/04/28 08:10:45;;;;;;;44.08;37.40;;;;;;;;;;5020223;28;20025;-60
2023/04/28 08:13:10;;;;;;;63.67;57.58;;;;;;;;;;5017257;28;20085;-60
2023/04/28 08:15:36;;;;;;;47.63;43.00;;;;;;;;;;5011798;28;20757;-60
2023/04/28 08:18:01;;;;;;;38.33;34.70;;;;;;;;;;5015839;28;20036;-60
2023/04/28 08:20:26;;;;;;;65.55;61.33;;;;;;;;;;5015208;28;20468;-60
2023/04/28 08:22:52;;;;;;;57.53;53.60;;;;;;;;;;5020752;28;20018;-61
2023/04/28 08:25:17;;;;;;;35.85;32.88;;;;;;;;;;5005491;28;20030;-60
2023/04/28 08:27:42;;;;;;;47.63;43.90;;;;;;;;;;5042727;28;20033;-59
2023/04/28 08:30:08;;;;;;;72.90;67.82;;;;;;;;;;5012430;28;20354;-60
2023/04/28 08:32:33;;;;;;;83.10;77.47;;;;;;;;;;5019631;28;20456;-59
2023/04/28 08:34:59;;;;;;;85.18;79.38;;;;;;;;;;5009569;28;21708;-61
2023/04/28 08:37:25;;;;;;;109.43;101.60;;;;;;;;;;5008213;28;20025;-61
2023/04/28 08:39:58;;;;;;;103.93;96.95;;;;;;;;;;5015939;28;20148;-60
2023/04/28 08:42:24;;;;;;;112.95;105.32;;;;;;;;;;5015171;28;20033;-59
2023/04/28 08:44:50;;;;;;;84.53;78.13;;;;;;;;;;5012485;28;20024;-60
2023/04/28 08:47:17;;;;;;;111.15;104.05;;;;;;;;;;5020382;28;20446;-59
2023/04/28 08:49:43;;;;;;;102.90;96.07;;;;;;;;;;5021146;28;20030;-60
2023/04/28 08:52:11;;;;;;;118.40;110.72;;;;;;;;;;5007019;28;20359;-60
2023/04/28 08:54:37;;;;;;;128.88;118.07;;;;;;;;;;5014431;28;20025;-60
2023/04/28 08:57:04;;;;;;;92.95;86.32;;;;;;;;;;5028157;28;20655;-62
2023/04/28 08:59:29;;;;;;;45.55;41.55;;;;;;;;;;5018486;28;20020;-60
2023/04/28 09:01:55;;;;;;;59.42;55.55;;;;;;;;;;5014984;28;20022;-52
2023/04/28 09:04:21;;;;;;;68.20;63.40;;;;;;;;;;5020410;28;20025;-54
2023/04/28 09:06:46;;;;;;;86.80;80.47;;;;;;;;;;5017765;28;20025;-55
2023/04/28 09:09:21;;;;;;;91.40;84.82;;;;;;;;;;5004907;28;20052;-57
2023/04/28 09:11:54;;;;;;;73.65;68.55;;;;;;;;;;5027286;28;20040;-54
2023/04/28 09:14:19;;;;;;;51.65;47.97;;;;;;;;;;5026168;28;20021;-55
2023/04/28 09:16:45;;;;;;;36.55;33.00;;;;;;;;;;5016007;28;20699;-58
2023/04/28 09:19:10;;;;;;;36.33;32.95;;;;;;;;;;5023608;28;20108;-60
2023/04/28 09:22:04;;;;;;;18.00;14.07;;;;;;;;;;5008976;28;20065;-58
2023/04/28 09:24:34;;;;;;;19.08;16.85;;;;;;;;;;4997439;28;20045;-58
2023/04/28 09:27:01;;;;;;;9.73;5.55;;;;;;;;;;4991530;28;20484;-62
2023/04/28 09:29:26;;;;;;;23.38;21.23;;;;;;;;;;4985794;28;20403;-61
2023/04/28 09:31:52;;;;;;;11.88;10.65;;;;;;;;;;4998993;28;20044;-63
2023/04/28 09:34:18;;;;;;;20.38;18.35;;;;;;;;;;4996709;28;20128;-62
2023/04/28 09:36:43;;;;;;;37.88;35.13;;;;;;;;;;5000000;28;20033;-60
2023/04/28 09:39:08;;;;;;;32.38;29.55;;;;;;;;;;5001636;28;20096;-62
2023/04/28 09:41:35;;;;;;;43.25;39.85;;;;;;;;;;4999238;28;20366;-62
2023/04/28 09:44:09;;;;;;;19.13;17.10;;;;;;;;;;4999020;28;20421;-60
2023/04/28 09:46:35;;;;;;;29.55;27.10;;;;;;;;;;4995227;28;20065;-63
2023/04/28 09:49:01;;;;;;;31.08;27.80;;;;;;;;;;4996040;28;20066;-62
2023/04/28 09:51:26;;;;;;;14.82;10.88;;;;;;;;;;5001459;28;20022;-62
2023/04/28 09:53:52;;;;;;;16.20;14.63;;;;;;;;;;5021394;28;20171;-61
2023/04/28 09:56:20;;;;;;;18.67;12.57;;;;;;;;;;5021960;28;20091;-62
2023/04/28 09:58:46;;;;;;;11.43;5.70;;;;;;;;;;5021635;28;20145;-62
2023/04/28 10:01:12;;;;;;;13.60;8.27;;;;;;;;;;5027256;28;20041;-62
2023/04/28 10:03:38;;;;;;;9.77;4.90;;;;;;;;;;5026480;28;20018;-62
2023/04/28 10:06:04;;;;;;;13.00;5.05;;;;;;;;;;5025007;28;20104;-62
2023/04/28 10:08:29;;;;;;;11.63;5.95;;;;;;;;;;5021680;28;20075;-61
2023/04/28 10:10:55;;;;;;;15.23;6.78;;;;;;;;;;5018430;28;20041;-61
2023/04/28 10:13:21;;;;;;;11.48;5.13;;;;;;;;;;5023151;28;20079;-61
2023/04/28 10:15:47;;;;;;;8.93;5.00;;;;;;;;;;5024169;28;20018;-62
2023/04/28 10:18:16;;;;;;;20.05;6.90;;;;;;;;;;5019391;28;20050;-65
2023/04/28 10:20:45;;;;;;;16.98;4.82;;;;;;;;;;5018782;28;20030;-61
2023/04/28 10:23:17;;;;;;;16.02;9.55;;;;;;;;;;5004839;28;20038;-63
2023/04/28 10:25:42;;;;;;;9.88;5.22;;;;;;;;;;5004549;28;20026;-63
2023/04/28 10:28:08;;;;;;;11.60;6.05;;;;;;;;;;5020944;28;20074;-60
2023/04/28 10:30:34;;;;;;;10.60;5.55;;;;;;;;;;5008352;28;20386;-59
2023/04/28 10:33:21;;;;;;;7.57;4.05;;;;;;;;;;5013672;28;20024;-61
2023/04/28 10:35:47;;;;;;;13.20;4.97;;;;;;;;;;5016861;28;20432;-60
2023/04/28 10:38:16;;;;;;;18.00;5.85;;;;;;;;;;5010624;28;20028;-61
2023/04/28 10:40:45;;;;;;;13.68;6.75;;;;;;;;;;5047464;28;20565;-61
2023/04/28 10:43:11;;;;;;;17.27;4.10;;;;;;;;;;5055383;28;20478;-61
2023/04/28 10:45:52;;;;;;;13.15;5.63;;;;;;;;;;5047911;28;20151;-62
2023/04/28 10:48:38;;;;;;;9.88;6.00;;;;;;;;;;5058871;28;20131;-62
2023/04/28 10:51:08;;;;;;;15.13;6.75;;;;;;;;;;5018581;28;20539;-63
2023/04/28 10:53:45;;;;;;;7.88;3.67;;;;;;;;;;5015769;28;20041;-64
2023/04/28 10:56:11;;;;;;;6.78;3.08;;;;;;;;;;5015697;28;20057;-64
2023/04/28 10:58:44;;;;;;;9.50;3.03;;;;;;;;;;5008510;28;20022;-65
2023/04/28 11:01:19;;;;;;;6.65;3.22;;;;;;;;;;5021288;28;20033;-65
2023/04/28 11:03:47;;;;;;;10.80;3.60;;;;;;;;;;5019034;28;20392;-63
2023/04/28 11:06:25;;;;;;;6.40;2.33;;;;;;;;;;5018783;28;20504;-61
2023/04/28 11:08:50;;;;;;;5.65;2.28;;;;;;;;;;5019253;28;20678;-60
2023/04/28 11:11:17;;;;;;;25.83;7.43;;;;;;;;;;5021275;28;20213;-66
2023/04/28 11:13:45;;;;;;;22.20;8.32;;;;;;;;;;5009417;28;20164;-60
2023/04/28 11:16:11;;;;;;;7.13;2.83;;;;;;;;;;5008354;28;20033;-58
2023/04/28 11:18:47;;;;;;;26.30;7.85;;;;;;;;;;5002805;28;20065;-61
2023/04/28 11:21:13;;;;;;;11.60;4.25;;;;;;;;;;5002141;28;20469;-60
2023/04/28 11:23:38;;;;;;;17.08;4.40;;;;;;;;;;5000499;28;20025;-57
2023/04/28 11:26:04;;;;;;;16.45;5.75;;;;;;;;;;5000442;28;20513;-57
2023/04/28 11:28:29;;;;;;;9.70;2.72;;;;;;;;;;5003929;28;20088;-58
2023/04/28 11:31:10;;;;;;;9.52;2.90;;;;;;;;;;5010730;28;20035;-55
2023/04/28 11:33:36;;;;;;;17.67;3.78;;;;;;;;;;5017633;28;20022;-56
2023/04/28 11:36:02;;;;;;;5.65;2.42;;;;;;;;;;5010402;28;20101;-57
2023/04/28 11:38:27;;;;;;;3.65;2.40;;;;;;;;;;5019100;28;20540;-52
2023/04/28 11:40:58;;;;;;;13.77;2.67;;;;;;;;;;5017989;28;20044;-57
2023/04/28 11:43:29;;;;;;;6.65;2.83;;;;;;;;;;5007073;28;20353;-57
2023/04/28 11:45:56;;;;;;;8.23;3.30;;;;;;;;;;5007589;28;20509;-54
2023/04/28 11:48:21;;;;;;;6.15;2.40;;;;;;;;;;5011546;28;20021;-57
2023/04/28 11:50:46;;;;;;;5.65;2.53;;;;;;;;;;5006086;28;20476;-57
2023/04/28 11:53:12;;;;;;;6.50;2.42;;;;;;;;;;5009811;28;20034;-55
2023/04/28 11:55:37;;;;;;;8.45;2.40;;;;;;;;;;5013514;28;20462;-54
2023/04/28 11:58:23;;;;;;;11.07;4.45;;;;;;;;;;5013634;28;20047;-58
2023/04/28 12:01:07;;;;;;;7.25;3.10;;;;;;;;;;5026034;28;20104;-59
2023/04/28 12:03:41;;;;;;;4.90;2.60;;;;;;;;;;5016765;28;20030;-62
2023/04/28 12:06:06;;;;;;;5.82;2.35;;;;;;;;;;5010927;28;20095;-65
2023/04/28 12:08:31;;;;;;;11.15;3.22;;;;;;;;;;5010268;28;20029;-59
2023/04/28 12:11:07;;;;;;;4.93;2.40;;;;;;;;;;5019765;28;20310;-61
2023/04/28 12:13:32;;;;;;;6.47;2.83;;;;;;;;;;5025103;28;20254;-62
2023/04/28 12:16:00;;;;;;;7.80;2.38;;;;;;;;;;5008783;28;20533;-61
2023/04/28 12:18:26;;;;;;;6.97;3.20;;;;;;;;;;5014103;28;20556;-63
2023/04/28 12:20:52;;;;;;;6.05;2.20;;;;;;;;;;5015154;28;20026;-64
2023/04/28 12:23:27;;;;;;;6.35;2.67;;;;;;;;;;5007710;28;20476;-66
2023/04/28 12:25:53;;;;;;;5.32;2.35;;;;;;;;;;5007289;28;20033;-63
2023/04/28 12:28:18;;;;;;;6.82;2.38;;;;;;;;;;5013470;28;20033;-65
2023/04/28 12:30:44;;;;;;;7.53;2.92;;;;;;;;;;5015970;28;20699;-64
2023/04/28 12:33:23;;;;;;;9.13;2.58;;;;;;;;;;5013452;28;20030;-63
2023/04/28 12:35:49;;;;;;;12.60;2.83;;;;;;;;;;5007801;28;20127;-63
2023/04/28 12:38:15;;;;;;;9.50;2.45;;;;;;;;;;5010485;28;20089;-68
2023/04/28 12:40:41;;;;;;;19.13;7.35;;;;;;;;;;5010347;28;20026;-65
2023/04/28 12:43:06;;;;;;;82.00;76.15;;;;;;;;;;5015650;28;20033;-67
2023/04/28 12:45:31;;;;;;;69.90;65.22;;;;;;;;;;5012491;28;20468;-64
2023/04/28 12:47:57;;;;;;;67.38;62.92;;;;;;;;;;5016172;28;20799;-65
2023/04/28 12:50:23;;;;;;;78.68;73.18;;;;;;;;;;5009190;28;20091;-67
2023/04/28 12:52:48;;;;;;;75.57;69.93;;;;;;;;;;5014023;28;20076;-69
2023/04/28 12:55:14;;;;;;;49.15;45.05;;;;;;;;;;5016742;28;20538;-66
2023/04/28 12:57:39;;;;;;;55.72;52.00;;;;;;;;;;5020831;28;20479;-67
2023/04/28 13:00:05;;;;;;;60.35;56.08;;;;;;;;;;5009638;28;20041;-69
2023/04/28 13:02:30;;;;;;;41.75;38.45;;;;;;;;;;5005905;28;20057;-67
2023/04/28 13:04:55;;;;;;;33.07;29.80;;;;;;;;;;4995298;28;20057;-63
2023/04/28 13:07:21;;;;;;;22.67;21.07;;;;;;;;;;5021136;28;20869;-65
2023/04/28 13:09:47;;;;;;;45.15;41.88;;;;;;;;;;5040415;28;20275;-65
2023/04/28 13:12:12;;;;;;;24.00;21.85;;;;;;;;;;5030749;28;20091;-72
2023/04/28 13:14:37;;;;;;;30.65;27.92;;;;;;;;;;5016918;28;20105;-65
2023/04/28 13:17:03;;;;;;;33.78;31.17;;;;;;;;;;5036201;28;20112;-68
2023/04/28 13:19:30;;;;;;;27.70;25.25;;;;;;;;;;5033307;28;20032;-69
2023/04/28 13:21:55;;;;;;;60.25;56.25;;;;;;;;;;5012163;28;20033;-66
2023/04/28 13:24:20;;;;;;;19.13;17.50;;;;;;;;;;5020281;28;20037;-67
2023/04/28 13:26:46;;;;;;;31.25;28.55;;;;;;;;;;5019882;28;20543;-66
2023/04/28 13:29:11;;;;;;;37.17;33.97;;;;;;;;;;5011056;28;20021;-66
2023/04/28 13:31:37;;;;;;;60.20;56.05;;;;;;;;;;5023024;28;20032;-65
2023/04/28 13:34:04;;;;;;;48.80;44.75;;;;;;;;;;5017180;28;20469;-69
2023/04/28 13:36:29;;;;;;;37.83;33.97;;;;;;;;;;5011484;28;20075;-68
2023/04/28 13:38:55;;;;;;;47.40;44.05;;;;;;;;;;5015335;28;20041;-69
2023/04/28 13:41:20;;;;;;;55.20;49.90;;;;;;;;;;5025552;28;20029;-68
2023/04/28 13:43:46;;;;;;;33.90;31.42;;;;;;;;;;5022037;28;20033;-68
2023/04/28 13:46:12;;;;;;;33.35;30.85;;;;;;;;;;5008872;28;20466;-70
2023/04/28 13:48:38;;;;;;;21.10;18.75;;;;;;;;;;5012846;28;20021;-69
2023/04/28 13:51:03;;;;;;;23.35;18.48;;;;;;;;;;5021819;28;20041;-68
2023/04/28 13:53:29;;;;;;;14.10;12.85;;;;;;;;;;5023567;28;20079;-70
2023/04/28 13:55:56;;;;;;;29.23;26.25;;;;;;;;;;5015335;28;20033;-66
2023/04/28 13:58:28;;;;;;;35.13;32.40;;;;;;;;;;5019607;28;20037;-64
2023/04/28 14:00:54;;;;;;;39.95;33.53;;;;;;;;;;5017868;28;20060;-68
2023/04/28 14:03:21;;;;;;;17.80;16.27;;;;;;;;;;5013978;28;20029;-67
2023/04/28 14:05:47;;;;;;;13.80;9.52;;;;;;;;;;5010511;28;20062;-68
2023/04/28 14:08:13;;;;;;;25.85;17.17;;;;;;;;;;5009636;28;20053;-69
2023/04/28 14:10:38;;;;;;;30.67;27.92;;;;;;;;;;5011577;28;20034;-67